Time;durP1;ratioP1;P1;durP2;ratioP2;P2;SDS_P1;SDS_P2;PMS_P1;PMS_P2;Temp;Humidity;BMP_temperature;BMP_pressure;BME280_temperature;BME280_humidity;BME280_pressure;Samples;Min_cycle;Max_cycle;Signal;HPM_P1;HPM_P2
2022/04/18 02:13:19;;;;;;;2.40;0.88;;;7.40;78.90;;;;;;4955770;28;20141;-88
2022/04/18 02:15:45;;;;;;;1.50;0.70;;;7.40;78.40;;;;;;4939647;29;20394;-87
2022/04/18 02:18:10;;;;;;;1.90;0.60;;;7.40;78.90;;;;;;4939059;29;20029;-87
2022/04/18 02:20:36;;;;;;;2.30;0.70;;;7.40;78.90;;;;;;4966658;28;20122;-87
2022/04/18 02:23:02;;;;;;;1.70;0.80;;;7.30;79.20;;;;;;4972360;28;20126;-88
2022/04/18 02:25:27;;;;;;;2.13;0.70;;;7.30;79.40;;;;;;4956702;29;20490;-88
2022/04/18 02:27:53;;;;;;;2.08;0.68;;;7.30;79.40;;;;;;4954682;28;20275;-88
2022/04/18 02:30:18;;;;;;;1.73;0.63;;;7.30;79.80;;;;;;4955493;29;20023;-87
2022/04/18 02:32:47;;;;;;;1.85;0.60;;;7.30;79.50;;;;;;4955493;29;20034;-88
2022/04/18 02:35:25;;;;;;;2.03;0.60;;;7.30;80.20;;;;;;4956529;28;20033;-88
2022/04/18 02:37:52;;;;;;;2.20;0.95;;;7.30;80.40;;;;;;4956228;29;20027;-87
2022/04/18 02:40:19;;;;;;;2.47;0.65;;;7.30;80.50;;;;;;4954046;29;20027;-88
2022/04/18 02:42:45;;;;;;;1.88;0.70;;;7.30;80.70;;;;;;4965160;28;20064;-88
2022/04/18 02:45:12;;;;;;;3.17;0.70;;;7.30;80.70;;;;;;4956127;29;20074;-88
2022/04/18 02:47:38;;;;;;;2.72;0.80;;;7.30;80.40;;;;;;4955833;28;20046;-88
2022/04/18 02:50:06;;;;;;;1.70;0.80;;;7.30;80.80;;;;;;4956539;28;20023;-87
2022/04/18 02:52:32;;;;;;;5.50;0.85;;;7.30;80.70;;;;;;4966692;28;20379;-88
2022/04/18 02:54:58;;;;;;;1.60;0.70;;;7.30;80.70;;;;;;4954735;28;20027;-88
2022/04/18 02:57:23;;;;;;;1.25;0.68;;;7.20;80.30;;;;;;4956119;29;20159;-88
2022/04/18 02:59:49;;;;;;;2.53;0.95;;;7.00;80.20;;;;;;4957676;29;20023;-87
2022/04/18 03:02:15;;;;;;;2.58;0.70;;;7.20;80.30;;;;;;4959624;29;20039;-88
2022/04/18 03:04:44;;;;;;;3.22;0.77;;;7.10;80.70;;;;;;4958401;29;20039;-88
2022/04/18 03:07:09;;;;;;;1.60;0.63;;;7.10;81.20;;;;;;4957967;29;20083;-88
2022/04/18 03:09:35;;;;;;;2.00;0.70;;;7.10;81.30;;;;;;4955092;29;20039;-88
2022/04/18 03:12:02;;;;;;;1.98;0.70;;;7.10;81.00;;;;;;4955841;29;20032;-88
2022/04/18 03:14:29;;;;;;;1.90;0.60;;;7.10;81.40;;;;;;4940218;29;20047;-88
2022/04/18 03:16:55;;;;;;;1.85;0.75;;;7.20;81.50;;;;;;4956052;29;20060;-88
2022/04/18 03:19:21;;;;;;;2.63;0.82;;;7.10;81.30;;;;;;4958047;28;20035;-88
2022/04/18 03:21:48;;;;;;;2.70;0.77;;;7.10;81.40;;;;;;4956007;29;20145;-88
2022/04/18 03:24:14;;;;;;;2.22;0.88;;;7.40;81.80;;;;;;4961510;28;20035;-88
2022/04/18 03:26:39;;;;;;;2.40;0.60;;;7.10;81.90;;;;;;4956324;29;20023;-88
2022/04/18 03:29:05;;;;;;;3.15;0.90;;;7.00;82.00;;;;;;4954375;29;20086;-88
2022/04/18 03:31:30;;;;;;;1.20;0.50;;;7.00;82.30;;;;;;4953730;29;20417;-87
2022/04/18 03:33:56;;;;;;;1.67;0.65;;;6.90;82.30;;;;;;4954994;29;20023;-88
2022/04/18 03:41:50;;;;;;;2.35;0.80;;;6.90;81.80;;;;;;4936281;29;20039;-87
2022/04/18 03:44:15;;;;;;;1.58;0.75;;;6.80;81.80;;;;;;4940526;29;20039;-88
2022/04/18 03:46:41;;;;;;;0.98;0.50;;;6.80;81.80;;;;;;4949256;29;20027;-88
2022/04/18 03:49:07;;;;;;;8.80;0.60;;;6.90;81.50;;;;;;4955053;28;20482;-87
2022/04/18 03:51:32;;;;;;;2.95;0.70;;;6.80;82.00;;;;;;4955199;28;20046;-88
2022/04/18 03:53:59;;;;;;;2.50;0.85;;;6.80;81.90;;;;;;4955165;28;20031;-88
2022/04/18 03:56:24;;;;;;;2.95;0.73;;;6.80;81.40;;;;;;4954046;28;20033;-88
2022/04/18 03:58:50;;;;;;;1.38;0.50;;;6.80;80.70;;;;;;4953387;29;20100;-88
2022/04/18 04:01:16;;;;;;;1.25;0.50;;;6.90;81.60;;;;;;4953393;29;20038;-88
2022/04/18 04:03:41;;;;;;;1.52;0.60;;;6.70;81.80;;;;;;4954941;28;20106;-88
2022/04/18 04:06:07;;;;;;;2.90;0.80;;;6.70;82.00;;;;;;4953937;28;20320;-88
2022/04/18 04:08:32;;;;;;;2.00;0.98;;;6.70;82.30;;;;;;4953123;28;20122;-88
2022/04/18 04:10:58;;;;;;;2.53;0.70;;;6.60;80.90;;;;;;4952678;29;20042;-88
2022/04/18 04:13:23;;;;;;;3.50;0.60;;;6.50;81.40;;;;;;4953399;29;20027;-87
2022/04/18 04:15:49;;;;;;;2.03;0.95;;;6.50;82.10;;;;;;4952815;29;20019;-87
2022/04/18 04:18:15;;;;;;;2.13;0.70;;;6.40;82.20;;;;;;4952722;29;20027;-87
2022/04/18 04:20:40;;;;;;;1.63;0.63;;;6.40;82.20;;;;;;4953130;29;20082;-88
2022/04/18 04:23:06;;;;;;;2.15;1.00;;;6.40;82.50;;;;;;4952437;29;20046;-88
2022/04/18 04:25:31;;;;;;;1.75;0.65;;;6.40;82.20;;;;;;4953158;29;20041;-88
2022/04/18 04:27:57;;;;;;;1.20;0.50;;;6.40;82.10;;;;;;4953761;29;20047;-88
2022/04/18 04:30:22;;;;;;;2.05;0.80;;;6.60;81.60;;;;;;4952500;29;20038;-87
2022/04/18 04:32:50;;;;;;;0.70;0.40;;;6.50;81.80;;;;;;4954015;29;20081;-88
2022/04/18 04:35:16;;;;;;;1.80;0.70;;;6.40;81.90;;;;;;4952559;29;20402;-88
2022/04/18 04:37:42;;;;;;;2.15;0.68;;;6.40;81.30;;;;;;4968154;28;20028;-87
2022/04/18 04:40:09;;;;;;;0.90;0.43;;;6.60;81.40;;;;;;4947571;29;20028;-88
2022/04/18 04:42:35;;;;;;;2.22;0.82;;;6.30;81.50;;;;;;4933543;29;20237;-88
2022/04/18 04:45:00;;;;;;;1.30;0.60;;;6.40;81.40;;;;;;4933352;29;20019;-88
2022/04/18 04:47:26;;;;;;;1.58;0.60;;;6.40;81.60;;;;;;4944767;29;20102;-88
2022/04/18 04:49:52;;;;;;;2.97;0.63;;;6.40;81.60;;;;;;4953787;29;20082;-88
2022/04/18 04:52:19;;;;;;;1.98;0.70;;;6.30;81.70;;;;;;4953450;29;20035;-87
2022/04/18 04:54:44;;;;;;;2.28;0.73;;;6.40;81.90;;;;;;4951981;29;20028;-87
2022/04/18 04:57:11;;;;;;;2.38;0.70;;;6.30;81.80;;;;;;4951625;29;20027;-87
2022/04/18 04:59:36;;;;;;;2.95;1.13;;;6.40;82.20;;;;;;4947397;29;20114;-87
2022/04/18 05:02:02;;;;;;;1.75;0.63;;;6.40;82.30;;;;;;4933327;29;20066;-88
2022/04/18 05:04:28;;;;;;;1.70;0.52;;;6.40;82.40;;;;;;4933210;29;20047;-87
2022/04/18 05:06:54;;;;;;;2.95;0.60;;;6.40;82.80;;;;;;4936103;29;20032;-87
2022/04/18 05:09:19;;;;;;;4.25;1.00;;;6.40;82.90;;;;;;4950656;29;20470;-88
2022/04/18 05:11:46;;;;;;;1.42;0.57;;;6.50;82.70;;;;;;4951135;29;20031;-88
2022/04/18 05:14:13;;;;;;;4.60;0.82;;;6.50;82.60;;;;;;4955128;29;20192;-88
2022/04/18 05:16:39;;;;;;;1.45;0.73;;;6.60;82.50;;;;;;4952463;29;20031;-87
2022/04/18 05:19:05;;;;;;;2.25;0.90;;;6.70;82.20;;;;;;4967374;28;20664;-87
2022/04/18 05:21:31;;;;;;;2.83;0.68;;;6.70;81.00;;;;;;4968081;28;20139;-87
2022/04/18 05:23:57;;;;;;;2.00;0.60;;;6.70;80.40;;;;;;4951423;29;20035;-87
2022/04/18 05:26:23;;;;;;;2.58;0.82;;;6.70;80.70;;;;;;4950568;29;20038;-87
2022/04/18 05:28:48;;;;;;;1.75;0.60;;;6.70;80.60;;;;;;4951762;29;20027;-87
2022/04/18 05:31:17;;;;;;;1.52;0.60;;;6.70;79.80;;;;;;4948549;29;20031;-87
2022/04/18 05:33:43;;;;;;;2.20;0.60;;;6.70;80.10;;;;;;4952560;28;20039;-87
2022/04/18 05:36:09;;;;;;;2.00;0.95;;;6.70;79.60;;;;;;4951328;29;20035;-87
2022/04/18 05:38:35;;;;;;;1.83;0.63;;;6.70;79.10;;;;;;4951916;29;20029;-87
2022/04/18 05:41:01;;;;;;;1.23;0.60;;;6.70;79.70;;;;;;4942657;28;20039;-88
2022/04/18 05:43:27;;;;;;;3.33;1.08;;;6.70;79.80;;;;;;4934344;29;20030;-87
2022/04/18 05:45:53;;;;;;;1.35;0.60;;;6.80;80.00;;;;;;4935787;29;20034;-88
2022/04/18 05:48:18;;;;;;;1.80;0.90;;;7.00;80.90;;;;;;4967597;28;20401;-87
2022/04/18 05:50:47;;;;;;;1.35;0.45;;;7.10;81.00;;;;;;4954440;28;20028;-86
2022/04/18 05:53:14;;;;;;;1.92;0.50;;;7.70;80.80;;;;;;4959476;28;20031;-88
2022/04/18 05:55:40;;;;;;;1.95;0.88;;;7.50;79.70;;;;;;4960164;28;20137;-87
2022/04/18 05:58:06;;;;;;;3.42;0.90;;;7.50;78.90;;;;;;4963284;28;20032;-87
2022/04/18 06:00:34;;;;;;;2.53;0.90;;;7.60;78.80;;;;;;4961477;28;20131;-87
2022/04/18 06:03:00;;;;;;;2.78;0.90;;;7.70;79.00;;;;;;4958762;28;20026;-87
2022/04/18 06:05:26;;;;;;;2.15;0.60;;;8.00;78.60;;;;;;4956872;28;20023;-87
2022/04/18 06:07:55;;;;;;;2.78;1.00;;;7.80;79.10;;;;;;4966435;28;20541;-87
2022/04/18 06:10:21;;;;;;;1.50;0.98;;;7.90;78.70;;;;;;4962112;28;20134;-88
2022/04/18 06:12:47;;;;;;;1.52;0.60;;;8.00;78.80;;;;;;4961784;28;20509;-87
2022/04/18 06:15:12;;;;;;;2.50;0.80;;;8.00;78.10;;;;;;4968016;28;20027;-87
2022/04/18 06:17:38;;;;;;;3.78;0.82;;;8.00;78.60;;;;;;4957420;28;20030;-87
2022/04/18 06:20:05;;;;;;;2.42;0.80;;;8.20;78.80;;;;;;4956220;28;20016;-87
2022/04/18 06:22:31;;;;;;;2.15;0.70;;;8.00;77.90;;;;;;4959993;28;20023;-87
2022/04/18 06:24:56;;;;;;;1.42;0.60;;;7.90;78.70;;;;;;4943456;28;20047;-87
2022/04/18 06:27:22;;;;;;;2.10;0.88;;;7.80;79.50;;;;;;4955415;28;20482;-87
2022/04/18 06:29:48;;;;;;;1.40;0.65;;;7.50;80.00;;;;;;4945947;28;20474;-87
2022/04/18 06:32:13;;;;;;;1.55;0.70;;;7.70;81.00;;;;;;4961612;28;20118;-88
2022/04/18 06:34:39;;;;;;;2.55;1.00;;;7.80;81.30;;;;;;4963704;28;20033;-88
2022/04/18 06:37:05;;;;;;;3.08;0.73;;;8.00;80.60;;;;;;4960463;28;20397;-87
2022/04/18 06:39:30;;;;;;;2.33;0.80;;;8.20;80.00;;;;;;4955470;29;20390;-88
2022/04/18 06:41:56;;;;;;;1.80;0.88;;;8.30;79.50;;;;;;4957605;28;20059;-87
2022/04/18 06:44:22;;;;;;;2.35;0.93;;;8.50;80.10;;;;;;4965322;28;20031;-88
2022/04/18 06:46:48;;;;;;;2.25;0.98;;;8.50;79.30;;;;;;4963191;28;20525;-87
2022/04/18 06:49:27;;;;;;;4.57;1.00;;;8.70;78.80;;;;;;4957481;28;20141;-87
2022/04/18 06:51:53;;;;;;;2.80;1.15;;;8.70;78.50;;;;;;4960950;28;20071;-88
2022/04/18 06:54:18;;;;;;;1.80;0.85;;;8.40;79.70;;;;;;4961819;28;20052;-88
2022/04/18 06:57:01;;;;;;;2.83;1.00;;;8.60;80.00;;;;;;4957754;28;20082;-88
2022/04/18 06:59:30;;;;;;;2.08;0.82;;;8.70;79.80;;;;;;4950779;29;20463;-88
2022/04/18 07:01:57;;;;;;;2.20;0.80;;;8.90;79.60;;;;;;4958254;28;20770;-88
2022/04/18 07:04:27;;;;;;;2.85;0.98;;;9.00;79.10;;;;;;4960477;28;20093;-88
2022/04/18 07:06:53;;;;;;;3.88;1.13;;;9.20;78.20;;;;;;4959821;28;20458;-88
2022/04/18 07:09:20;;;;;;;2.97;0.93;;;9.20;78.10;;;;;;4954961;28;20058;-88
2022/04/18 07:11:45;;;;;;;4.30;1.10;;;9.40;79.10;;;;;;4972452;28;20442;-88
2022/04/18 07:14:16;;;;;;;2.40;0.98;;;9.60;77.40;;;;;;4956663;28;20082;-88
2022/04/18 07:16:43;;;;;;;1.63;0.68;;;9.90;76.60;;;;;;4961131;28;20058;-88
2022/04/18 07:19:09;;;;;;;2.45;0.88;;;9.70;77.00;;;;;;4963683;28;20023;-88
2022/04/18 07:21:36;;;;;;;3.28;1.15;;;9.90;76.90;;;;;;4961097;28;20039;-89
2022/04/18 07:24:06;;;;;;;2.85;1.17;;;9.90;76.00;;;;;;4957200;28;20071;-89
2022/04/18 07:26:32;;;;;;;2.97;1.00;;;10.00;75.80;;;;;;4958750;28;20024;-87
2022/04/18 07:28:57;;;;;;;2.10;0.90;;;10.10;76.20;;;;;;4962476;28;20035;-88
2022/04/18 07:31:27;;;;;;;4.38;0.80;;;10.10;75.30;;;;;;4956481;28;20039;-88
2022/04/18 07:33:54;;;;;;;3.10;1.10;;;10.20;75.20;;;;;;4977402;28;20037;-88
2022/04/18 07:36:20;;;;;;;2.55;1.00;;;10.20;75.30;;;;;;4960373;28;20031;-88
2022/04/18 07:38:49;;;;;;;2.75;0.88;;;10.40;75.20;;;;;;4963133;28;20023;-88
2022/04/18 07:41:26;;;;;;;3.10;1.05;;;10.60;75.00;;;;;;4963654;28;20050;-88
2022/04/18 07:43:53;;;;;;;2.53;0.90;;;10.60;73.90;;;;;;4974733;28;20031;-88
2022/04/18 07:46:22;;;;;;;1.90;0.82;;;10.80;75.70;;;;;;4977455;28;20086;-88
2022/04/18 07:48:50;;;;;;;4.68;1.27;;;10.90;73.60;;;;;;4967666;28;20031;-88
2022/04/18 07:52:01;;;;;;;1.88;0.88;;;11.20;73.40;;;;;;4971416;28;20035;-89
2022/04/18 07:54:28;;;;;;;2.30;1.17;;;11.10;74.70;;;;;;4964351;28;20545;-88
2022/04/18 07:56:54;;;;;;;3.90;1.25;;;11.20;74.70;;;;;;4957909;28;20029;-89
2022/04/18 07:59:25;;;;;;;1.98;0.98;;;11.50;73.50;;;;;;4969664;28;20454;-90
2022/04/18 08:02:08;;;;;;;2.20;0.85;;;11.50;73.40;;;;;;4979460;28;20099;-89
2022/04/18 08:04:34;;;;;;;3.78;1.52;;;11.50;72.20;;;;;;4969008;28;20023;-89
2022/04/18 08:07:00;;;;;;;3.03;1.00;;;11.70;73.10;;;;;;4972431;28;20162;-89
2022/04/18 08:09:29;;;;;;;1.73;0.75;;;11.70;72.60;;;;;;4971887;28;20031;-89
2022/04/18 08:11:59;;;;;;;2.88;1.05;;;11.90;73.10;;;;;;4965370;28;20043;-89
2022/04/18 08:14:29;;;;;;;3.33;0.95;;;11.80;72.70;;;;;;4965700;28;20039;-90
2022/04/18 08:17:12;;;;;;;3.03;1.17;;;12.60;72.90;;;;;;4962491;28;20035;-89
2022/04/18 08:19:39;;;;;;;2.67;0.80;;;11.80;71.50;;;;;;4970287;28;20038;-87
2022/04/18 08:22:09;;;;;;;2.20;0.93;;;12.30;71.70;;;;;;4964789;28;20029;-89
2022/04/18 08:24:34;;;;;;;3.13;0.90;;;12.40;70.40;;;;;;4967820;28;20019;-88
2022/04/18 08:27:04;;;;;;;2.33;0.98;;;12.80;71.20;;;;;;4966671;28;20028;-88
2022/04/18 08:29:31;;;;;;;3.35;1.10;;;12.80;70.40;;;;;;4978238;28;20024;-89
2022/04/18 08:32:00;;;;;;;1.95;1.08;;;12.90;69.80;;;;;;4962412;28;20453;-88
2022/04/18 08:34:25;;;;;;;3.47;1.00;;;12.90;68.40;;;;;;4951006;29;20027;-88
2022/04/18 08:36:56;;;;;;;2.25;0.95;;;12.80;67.80;;;;;;4966146;28;20090;-88
2022/04/18 08:39:39;;;;;;;3.20;1.13;;;12.90;67.20;;;;;;4968277;28;20023;-89
2022/04/18 08:42:10;;;;;;;2.30;0.75;;;12.80;69.40;;;;;;4977958;28;20031;-87
2022/04/18 08:44:37;;;;;;;3.67;0.82;;;12.90;68.80;;;;;;4987091;28;20027;-89
2022/04/18 08:47:08;;;;;;;3.15;0.85;;;13.10;68.30;;;;;;4968885;28;20031;-89
2022/04/18 08:55:12;;;;;;;2.30;0.88;;;13.30;66.80;;;;;;4973780;28;20111;-88
2022/04/18 08:57:51;;;;;;;4.38;1.38;;;13.40;66.60;;;;;;4964872;28;20024;-88
2022/04/18 09:00:27;;;;;;;;;;;;;;;;;;;;;
2022/04/18 09:03:11;;;;;;;2.90;0.80;;;13.80;66.40;;;;;;4882737;29;20112;-87
2022/04/18 09:05:40;;;;;;;3.17;0.90;;;13.90;66.10;;;;;;4876398;29;20024;-89
2022/04/18 09:08:29;;;;;;;4.85;0.85;;;14.00;65.70;;;;;;4879289;29;20055;-87
2022/04/18 09:11:42;;;;;;;1.83;0.77;;;14.20;66.60;;;;;;4884947;29;20076;-88
2022/04/18 09:14:14;;;;;;;3.63;1.00;;;14.00;64.40;;;;;;4864796;29;20033;-87
2022/04/18 09:16:42;;;;;;;3.70;1.08;;;14.10;65.10;;;;;;4851354;29;20032;-88
2022/04/18 09:19:16;;;;;;;3.88;1.00;;;14.10;66.00;;;;;;4855038;29;20040;-89
2022/04/18 09:22:03;;;;;;;1.58;0.75;;;13.90;64.20;;;;;;4850973;29;20512;-88
2022/04/18 09:24:38;;;;;;;3.42;1.17;;;14.30;65.70;;;;;;4856425;29;20021;-90
2022/04/18 09:27:12;;;;;;;3.10;1.13;;;14.40;62.90;;;;;;4866162;29;20059;-88
2022/04/18 09:29:39;;;;;;;2.13;0.90;;;14.70;64.60;;;;;;4853311;29;20676;-88
2022/04/18 09:32:12;;;;;;;2.30;1.00;;;14.80;62.80;;;;;;4860203;29;20034;-88
2022/04/18 09:34:40;;;;;;;3.67;1.00;;;14.70;62.10;;;;;;4858582;29;20029;-90
2022/04/18 09:37:21;;;;;;;2.20;0.80;;;14.70;62.90;;;;;;4857778;29;20089;-89
2022/04/18 09:39:54;;;;;;;2.65;1.00;;;14.60;63.70;;;;;;4846934;29;20457;-88
2022/04/18 09:42:28;;;;;;;2.35;1.00;;;14.80;62.30;;;;;;4850064;29;20542;-89
2022/04/18 09:45:02;;;;;;;3.28;0.98;;;14.80;62.00;;;;;;4847620;29;20048;-89
2022/04/18 09:47:37;;;;;;;2.70;0.82;;;14.90;62.00;;;;;;4859182;29;20042;-89
2022/04/18 09:50:59;;;;;;;2.00;0.80;;;15.10;63.30;;;;;;4848774;29;20042;-88
2022/04/18 09:53:14;;;;;;;1.42;0.63;;;15.00;61.00;;;;;;4863153;29;20025;-89
2022/04/18 09:55:45;;;;;;;2.67;0.80;;;14.90;61.40;;;;;;4841215;29;20033;-88
2022/04/18 09:58:17;;;;;;;1.70;0.73;;;15.30;63.00;;;;;;4850628;29;20040;-89
2022/04/18 10:00:44;;;;;;;2.80;0.80;;;15.40;61.30;;;;;;4867638;29;20096;-88
2022/04/18 10:03:10;;;;;;;2.88;1.13;;;15.40;60.40;;;;;;4861127;29;20126;-90
2022/04/18 10:05:37;;;;;;;1.98;0.75;;;15.40;60.30;;;;;;4841320;29;20853;-90
2022/04/18 10:08:07;;;;;;;1.65;0.77;;;15.10;59.70;;;;;;4853340;29;20037;-90
2022/04/18 10:10:34;;;;;;;2.60;0.88;;;15.10;61.00;;;;;;4855771;29;20062;-89
2022/04/18 10:13:06;;;;;;;2.47;1.10;;;15.30;60.80;;;;;;4872533;29;20037;-91
2022/04/18 10:15:43;;;;;;;1.98;0.70;;;15.10;60.10;;;;;;4863242;29;20036;-91
2022/04/18 10:18:22;;;;;;;3.30;1.02;;;15.50;60.40;;;;;;4858616;29;20029;-91
2022/04/18 10:21:08;;;;;;;3.70;1.10;;;15.80;59.60;;;;;;4860310;29;20082;-91
2022/04/18 10:28:04;;;;;;;2.58;0.90;;;16.60;59.30;;;;;;4876752;29;20111;-91
2022/04/18 10:30:55;;;;;;;2.45;0.95;;;16.70;58.90;;;;;;4836478;29;20037;-92
2022/04/18 10:33:33;;;;;;;2.92;1.10;;;16.30;57.20;;;;;;4872712;29;20433;-91
2022/04/18 10:36:13;;;;;;;2.08;0.98;;;16.10;58.30;;;;;;4858257;29;20034;-89
2022/04/18 10:38:41;;;;;;;2.60;1.02;;;16.40;58.90;;;;;;4856442;29;20030;-89
2022/04/18 10:41:39;;;;;;;2.08;0.70;;;16.50;57.70;;;;;;4854706;29;20121;-88
2022/04/18 10:44:15;;;;;;;2.25;0.90;;;16.70;57.40;;;;;;4862631;29;20029;-89
2022/04/18 10:47:10;;;;;;;1.40;0.55;;;16.60;56.40;;;;;;4859666;29;20040;-90
2022/04/18 10:49:42;;;;;;;2.78;0.93;;;16.70;57.60;;;;;;4849851;29;20033;-89
2022/04/18 10:52:27;;;;;;;;;;;16.50;57.30;;;;;;4853606;29;20034;-90
2022/04/18 10:55:20;;;;;;;2.53;0.82;;;16.30;57.40;;;;;;4873840;29;19908;-89
2022/04/18 10:58:09;;;;;;;2.05;0.80;;;16.70;59.50;;;;;;4867716;29;20022;-89
2022/04/18 11:00:46;;;;;;;2.13;0.80;;;17.00;56.90;;;;;;4868113;29;20065;-90
2022/04/18 11:03:16;;;;;;;2.67;0.80;;;17.20;57.30;;;;;;4870794;29;20032;-88
2022/04/18 11:05:47;;;;;;;1.90;0.77;;;17.20;56.60;;;;;;4854242;29;20370;-87
2022/04/18 11:08:30;;;;;;;2.92;1.10;;;17.30;56.50;;;;;;4852061;29;20033;-88
2022/04/18 11:11:20;;;;;;;1.40;0.70;;;17.20;56.20;;;;;;4848550;29;20030;-88
2022/04/18 11:17:32;;;;;;;2.95;0.85;;;17.70;56.00;;;;;;4856495;29;20030;-88
2022/04/18 11:35:31;;;;;;;3.25;1.08;;;18.70;55.50;;;;;;663332;23;20395;-88
2022/04/18 11:38:06;;;;;;;2.00;0.80;;;18.90;55.60;;;;;;4888084;29;20061;-89
2022/04/18 11:40:36;;;;;;;3.38;1.55;;;19.20;55.20;;;;;;4875365;29;20119;-89
2022/04/18 11:43:09;;;;;;;1.92;1.02;;;19.30;54.90;;;;;;4876915;29;20104;-89
2022/04/18 11:45:34;;;;;;;2.50;0.77;;;19.30;53.10;;;;;;4878635;29;20032;-88
2022/04/18 11:48:02;;;;;;;2.03;1.00;;;19.40;53.70;;;;;;4894686;29;20404;-89
2022/04/18 11:50:32;;;;;;;2.15;0.80;;;19.20;53.60;;;;;;4879081;29;20080;-89
2022/04/18 11:53:07;;;;;;;2.92;1.10;;;19.60;54.10;;;;;;4877462;29;20528;-89
2022/04/18 11:55:44;;;;;;;2.40;0.85;;;19.40;53.10;;;;;;4881533;29;20029;-90
2022/04/18 11:58:11;;;;;;;2.00;0.85;;;19.50;54.60;;;;;;4874897;29;20024;-89
2022/04/18 12:08:52;;;;;;;2.20;0.88;;;20.20;52.70;;;;;;4893971;29;20061;-89
2022/04/18 12:11:18;;;;;;;2.53;1.10;;;20.10;52.30;;;;;;4878905;29;20028;-90
2022/04/18 12:13:46;;;;;;;2.15;0.95;;;20.20;51.10;;;;;;4877754;29;20052;-88
2022/04/18 12:16:15;;;;;;;2.53;1.00;;;20.20;51.40;;;;;;4877586;29;20028;-88
2022/04/18 12:18:41;;;;;;;2.03;0.90;;;19.90;51.60;;;;;;4878169;29;20031;-89
2022/04/18 12:21:35;;;;;;;2.28;0.88;;;19.90;52.70;;;;;;4876134;29;20040;-89
2022/04/18 12:24:01;;;;;;;2.95;1.05;;;20.10;52.30;;;;;;4877180;29;20034;-90
2022/04/18 12:26:30;;;;;;;3.30;1.42;;;20.10;51.70;;;;;;4879381;29;20485;-90
2022/04/18 12:29:08;;;;;;;2.33;0.90;;;20.30;51.20;;;;;;4881104;29;20043;-90
2022/04/18 12:31:38;;;;;;;3.95;1.42;;;20.40;52.20;;;;;;4895141;29;20051;-90
2022/04/18 12:34:04;;;;;;;3.28;0.82;;;20.60;51.70;;;;;;4883845;29;20543;-91
2022/04/18 12:40:36;;;;;;;2.35;0.90;;;20.60;51.30;;;;;;4807253;29;20050;-90
2022/04/18 12:43:57;;;;;;;;;;;;;;;;;;;;;
2022/04/18 13:13:02;;;;;;;;;;;;;;;;;;;;;
2022/04/18 13:20:09;;;;;;;;;;;;;;;;;;;;;
2022/04/18 13:23:25;;;;;;;1.73;0.75;;;21.60;50.50;;;;;;4872203;29;20035;-89
2022/04/18 13:29:41;;;;;;;1.90;0.70;;;21.80;50.10;;;;;;4850821;29;20097;-89
2022/04/18 13:32:23;;;;;;;;;;;;;;;;;;;;;
2022/04/18 13:35:02;;;;;;;2.35;0.63;;;22.50;49.10;;;;;;4878595;29;20043;-88
2022/04/18 13:44:37;;;;;;;2.45;0.90;;;22.50;49.00;;;;;;4933812;29;20102;-89
2022/04/18 13:47:16;;;;;;;2.65;0.80;;;21.90;48.90;;;;;;4933418;29;20047;-88
2022/04/18 13:50:43;;;;;;;;;;;;;;;;;;;;;
2022/04/18 13:57:51;;;;;;;1.80;0.57;;;21.80;47.70;;;;;;4839637;29;20049;-88
2022/04/18 14:01:12;;;;;;;1.92;0.82;;;22.10;47.40;;;;;;4850049;29;20077;-90
2022/04/18 14:04:59;;;;;;;;;;;;;;;;;;;;;
2022/04/18 14:28:23;;;;;;;2.97;0.70;;;22.20;47.60;;;;;;4931835;29;20047;-88
2022/04/18 14:31:20;;;;;;;3.47;1.00;;;22.10;47.30;;;;;;4947042;29;20040;-88
2022/04/18 14:34:26;;;;;;;1.90;0.60;;;22.20;47.20;;;;;;4938679;29;20035;-88
2022/04/18 14:36:55;;;;;;;1.85;0.80;;;22.40;47.90;;;;;;4955861;23;20446;-88
2022/04/18 14:40:04;;;;;;;1.17;0.55;;;22.40;47.70;;;;;;4925456;29;20426;-89
2022/04/18 14:43:20;;;;;;;1.88;0.52;;;22.40;47.10;;;;;;4935718;29;20035;-88
2022/04/18 14:46:27;;;;;;;1.33;0.57;;;22.60;47.60;;;;;;4959860;28;20032;-88
2022/04/18 14:56:33;;;;;;;;;;;;;;;;;;;;;
2022/04/18 14:59:06;;;;;;;2.00;0.80;;;22.30;47.50;;;;;;4895663;29;20035;-87
2022/04/18 15:01:47;;;;;;;1.25;0.40;;;22.20;47.90;;;;;;4879590;29;20029;-88
2022/04/18 15:08:01;;;;;;;1.08;0.40;;;22.40;47.00;;;;;;4840554;29;20060;-87
2022/04/18 15:10:53;;;;;;;2.35;0.73;;;22.50;46.80;;;;;;4898086;29;20130;-87
2022/04/18 15:13:31;;;;;;;1.33;0.50;;;22.30;47.20;;;;;;4930886;29;20114;-87
2022/04/18 15:16:06;;;;;;;1.85;0.55;;;22.30;47.10;;;;;;4935952;29;20421;-89
2022/04/18 15:19:11;;;;;;;1.75;0.70;;;22.30;46.70;;;;;;4936830;29;20511;-88
2022/04/18 15:21:55;;;;;;;1.98;0.70;;;22.40;47.80;;;;;;4951939;29;20043;-87
2022/04/18 15:24:23;;;;;;;2.33;0.75;;;22.50;47.60;;;;;;4935696;29;20126;-87
2022/04/18 15:27:26;;;;;;;2.97;0.60;;;22.60;48.30;;;;;;4934153;29;20126;-87
2022/04/18 15:32:41;;;;;;;1.20;0.40;;;22.80;47.30;;;;;;4934690;29;20187;-87
2022/04/18 15:35:44;;;;;;;1.83;0.70;;;23.10;47.00;;;;;;4935057;29;20136;-88
2022/04/18 15:38:21;;;;;;;0.98;0.40;;;22.90;46.50;;;;;;4926860;29;20043;-87
2022/04/18 15:41:14;;;;;;;2.30;0.60;;;22.70;46.50;;;;;;4932460;29;20127;-87
2022/04/18 15:44:21;;;;;;;1.13;0.60;;;22.70;46.50;;;;;;4914487;29;20036;-88
2022/04/18 15:47:05;;;;;;;2.17;0.77;;;22.40;47.40;;;;;;4932642;29;20168;-88
2022/04/18 15:50:23;;;;;;;2.70;0.50;;;22.20;47.20;;;;;;4930949;29;20082;-87
2022/04/18 15:53:24;;;;;;;;;;;;;;;;;;;;;
2022/04/18 15:55:57;;;;;;;1.60;0.50;;;21.20;47.40;;;;;;4935691;29;20023;-87
2022/04/18 15:58:25;;;;;;;0.95;0.40;;;20.50;48.70;;;;;;4935570;29;20051;-87
2022/04/18 16:00:50;;;;;;;2.13;0.60;;;20.00;48.90;;;;;;4933874;29;20173;-87
2022/04/18 16:03:22;;;;;;;1.00;0.43;;;19.60;50.00;;;;;;4933941;29;20529;-87
2022/04/18 16:05:56;;;;;;;;;;;19.30;50.20;;;;;;4935698;29;20020;-88
2022/04/18 16:08:22;;;;;;;2.05;0.73;;;18.90;50.40;;;;;;4932946;29;19907;-88
2022/04/18 16:11:28;;;;;;;1.98;0.60;;;18.70;50.50;;;;;;4937066;29;20076;-86
2022/04/18 16:13:54;;;;;;;0.98;0.50;;;18.40;51.10;;;;;;4933711;29;20024;-87
2022/04/18 16:16:24;;;;;;;1.35;0.60;;;18.30;52.40;;;;;;4934118;29;20362;-87
2022/04/18 16:19:48;;;;;;;1.42;0.60;;;18.20;51.70;;;;;;4933512;29;20031;-87
2022/04/18 16:23:04;;;;;;;1.55;0.47;;;17.90;52.40;;;;;;4900332;29;20044;-88
2022/04/18 16:28:29;;;;;;;3.25;1.05;;;17.60;52.50;;;;;;4933614;29;20126;-87
2022/04/18 16:34:39;;;;;;;1.38;0.40;;;17.10;52.70;;;;;;4926337;29;20058;-88
2022/04/18 16:37:50;;;;;;;1.85;0.63;;;17.20;53.90;;;;;;4932343;29;20048;-87
2022/04/18 16:53:20;;;;;;;0.85;0.40;;;16.90;54.00;;;;;;4931596;29;20510;-87
2022/04/18 16:55:56;;;;;;;;;;;16.90;54.80;;;;;;4947289;29;20034;-86
2022/04/18 16:58:34;;;;;;;1.65;0.20;;;16.80;54.40;;;;;;4947803;29;19907;-87
2022/04/18 17:01:40;;;;;;;1.17;0.30;;;16.70;55.00;;;;;;4931811;29;20053;-87
2022/04/18 17:04:28;;;;;;;0.57;0.30;;;16.70;55.30;;;;;;4909718;29;20049;-87
2022/04/18 17:07:15;;;;;;;2.38;0.73;;;16.50;54.80;;;;;;4931390;29;20822;-87
2022/04/18 17:10:06;;;;;;;1.38;0.50;;;16.40;54.60;;;;;;4932268;29;20032;-87
2022/04/18 17:12:59;;;;;;;;;;;;;;;;;;;;;
2022/04/18 17:15:44;;;;;;;;;;;;;;;;;;;;;
2022/04/18 17:21:14;;;;;;;1.98;0.43;;;16.20;55.30;;;;;;4935579;29;20027;-87
2022/04/18 17:23:57;;;;;;;0.75;0.30;;;16.10;55.30;;;;;;4935058;29;20127;-88
2022/04/18 17:26:34;;;;;;;0.88;0.40;;;16.00;55.50;;;;;;4933388;29;20027;-87
2022/04/18 17:29:23;;;;;;;;;;;;;;;;;;;;;
2022/04/18 17:31:52;;;;;;;0.60;0.30;;;16.00;55.80;;;;;;4935462;29;20124;-86
2022/04/18 17:34:22;;;;;;;0.70;0.20;;;15.90;55.90;;;;;;4934637;29;20028;-86
2022/04/18 17:41:13;;;;;;;;;;;;;;;;;;;;;
2022/04/18 17:47:44;;;;;;;1.38;0.40;;;15.60;57.30;;;;;;4917740;29;20035;-86
2022/04/18 18:00:53;;;;;;;1.13;0.40;;;15.40;57.70;;;;;;4937308;29;20042;-87
2022/04/18 18:04:18;;;;;;;2.03;0.73;;;15.50;58.50;;;;;;4917517;29;20035;-87
2022/04/18 18:07:15;;;;;;;0.98;0.43;;;15.40;58.90;;;;;;5076409;23;20062;-90
2022/04/18 18:09:40;;;;;;;0.85;0.35;;;15.30;58.60;;;;;;4954848;28;20272;-88
2022/04/18 18:12:06;;;;;;;1.10;0.40;;;15.30;59.10;;;;;;4961018;28;20063;-88
2022/04/18 18:14:32;;;;;;;1.95;0.40;;;15.20;59.30;;;;;;4969119;28;20023;-86
2022/04/18 18:16:59;;;;;;;0.85;0.30;;;15.20;59.60;;;;;;4967457;28;20499;-89
2022/04/18 18:19:25;;;;;;;1.58;0.40;;;15.30;60.00;;;;;;4964000;28;20019;-87
2022/04/18 18:21:52;;;;;;;1.13;0.35;;;15.00;60.00;;;;;;4961708;28;20035;-86
2022/04/18 18:24:19;;;;;;;0.50;0.20;;;15.00;60.10;;;;;;4954616;28;20032;-86
2022/04/18 18:26:46;;;;;;;1.30;0.50;;;15.00;60.40;;;;;;4944762;28;20110;-88
2022/04/18 23:12:53;;;;;;;1.27;0.50;;;10.30;76.80;;;;;;4947661;28;20051;-90
2022/04/18 23:15:41;;;;;;;1.38;0.55;;;10.20;76.90;;;;;;4935822;29;20035;-91
2022/04/18 23:21:15;;;;;;;1.52;0.63;;;10.20;76.90;;;;;;5068759;23;20074;-90
2022/04/18 23:24:04;;;;;;;3.90;0.93;;;10.20;77.30;;;;;;4894230;29;20060;-90
2022/04/18 23:26:49;;;;;;;2.58;0.50;;;10.20;77.10;;;;;;4916702;29;20033;-91
2022/04/18 23:29:40;;;;;;;1.35;0.60;;;10.20;77.10;;;;;;4904508;29;20196;-91
2022/04/18 23:32:15;;;;;;;1.33;0.50;;;10.10;77.40;;;;;;4927678;29;20039;-91